Time;durP1;ratioP1;P1;durP2;ratioP2;P2;SDS_P1;SDS_P2;PMS_P1;PMS_P2;Temp;Humidity;BMP_temperature;BMP_pressure;BME280_temperature;BME280_humidity;BME280_pressure;Samples;Min_cycle;Max_cycle;Signal;HPM_P1;HPM_P2
2021/07/28 00:01:56;;;;;;;4.75;3.25;;;;;;;17.46;89.58;100454.47;4962735;28;20141;-82
2021/07/28 00:04:25;;;;;;;3.58;3.28;;;;;;;17.45;89.92;100449.25;4973328;28;20043;-87
2021/07/28 00:06:52;;;;;;;6.00;3.70;;;;;;;17.40;90.16;100438.84;4976108;28;20058;-82
2021/07/28 00:09:18;;;;;;;5.72;3.72;;;;;;;17.36;89.90;100440.78;4968392;28;20614;-83
2021/07/28 00:11:49;;;;;;;7.28;3.72;;;;;;;17.35;90.06;100435.53;4955787;28;20069;-83
2021/07/28 00:14:17;;;;;;;5.35;3.78;;;;;;;17.32;89.90;100425.06;4952716;28;20054;-84
2021/07/28 00:16:44;;;;;;;12.25;3.60;;;;;;;17.30;89.66;100417.22;4953415;28;20525;-87
2021/07/28 00:19:18;;;;;;;7.95;4.38;;;;;;;17.29;90.11;100423.41;4971387;28;20241;-85
2021/07/28 00:24:30;;;;;;;4.97;3.65;;;;;;;17.30;89.72;100419.84;4918778;28;21036;-83
2021/07/28 00:26:59;;;;;;;3.83;3.53;;;;;;;17.30;89.89;100414.56;4971467;28;20528;-87
2021/07/28 00:29:29;;;;;;;6.75;4.03;;;;;;;17.29;89.57;100415.47;4959311;28;20046;-87
2021/07/28 00:31:59;;;;;;;4.90;2.92;;;;;;;17.29;89.88;100409.34;4952191;28;20419;-84
2021/07/28 00:34:25;;;;;;;5.00;3.53;;;;;;;17.27;89.58;100413.81;4959613;28;20055;-87
2021/07/28 00:37:01;;;;;;;6.75;4.05;;;;;;;17.25;89.63;100405.06;4972507;28;20038;-83
2021/07/28 00:39:28;;;;;;;7.72;5.32;;;;;;;17.24;89.47;100406.00;4976323;28;20055;-83
2021/07/28 00:41:57;;;;;;;3.25;2.95;;;;;;;17.18;89.55;100399.16;4973884;28;20046;-83
2021/07/28 00:44:29;;;;;;;7.63;3.60;;;;;;;17.16;90.07;100395.75;4978397;28;20046;-83
2021/07/28 00:46:58;;;;;;;4.80;3.60;;;;;;;17.13;89.89;100391.44;4981679;28;20049;-84
2021/07/28 00:49:31;;;;;;;6.28;3.60;;;;;;;17.14;90.35;100398.47;4963826;28;20310;-82
2021/07/28 00:52:02;;;;;;;8.23;4.72;;;;;;;17.12;90.23;100394.16;4973227;28;20042;-88
2021/07/28 00:54:38;;;;;;;5.53;3.72;;;;;;;17.07;90.32;100386.38;4974113;28;20046;-86
2021/07/28 00:57:17;;;;;;;5.50;3.45;;;;;;;16.96;91.30;100380.66;4987845;28;20057;-82
2021/07/28 01:02:49;;;;;;;3.47;3.15;;;;;;;16.69;91.70;100376.38;4965690;28;20051;-88
2021/07/28 01:05:19;;;;;;;5.97;4.25;;;;;;;16.61;92.04;100386.38;4965480;28;20042;-84
2021/07/28 01:07:48;;;;;;;4.93;3.25;;;;;;;16.53;92.26;100389.31;4972811;28;20054;-87
2021/07/28 01:10:18;;;;;;;4.00;3.60;;;;;;;16.46;92.32;100387.81;4979026;28;20054;-84
2021/07/28 01:12:46;;;;;;;8.10;4.10;;;;;;;16.41;93.02;100391.56;4958717;28;20053;-88
2021/07/28 01:15:40;;;;;;;5.00;3.45;;;;;;;16.36;93.00;100387.31;4965451;28;20034;-83
2021/07/28 01:18:27;;;;;;;4.30;3.90;;;;;;;16.28;93.66;100384.13;4968878;28;20054;-81
2021/07/28 01:21:01;;;;;;;5.55;3.88;;;;;;;16.23;93.90;100387.81;4985532;28;20046;-82
2021/07/28 01:23:31;;;;;;;4.22;3.85;;;;;;;16.16;94.48;100393.31;4986944;28;20057;-82
2021/07/28 01:26:12;;;;;;;5.17;3.13;;;;;;;16.12;94.34;100396.16;4968857;28;20051;-82
2021/07/28 01:28:53;;;;;;;8.27;3.53;;;;;;;16.09;95.12;100389.19;4993306;28;20047;-82
2021/07/28 01:31:30;;;;;;;5.80;3.95;;;;;;;16.04;95.00;100381.44;4980946;28;20096;-87
2021/07/28 01:36:33;;;;;;;6.68;3.85;;;;;;;16.00;95.14;100387.75;4965908;28;20493;-93
2021/07/28 01:39:05;;;;;;;6.03;3.67;;;;;;;15.97;95.64;100384.34;4960672;28;20057;-93
2021/07/28 01:41:37;;;;;;;6.82;4.05;;;;;;;15.99;95.45;100385.16;4943743;28;20131;-93
2021/07/28 01:44:06;;;;;;;5.85;3.25;;;;;;;15.99;95.19;100382.53;4956237;28;20046;-92
2021/07/28 01:46:36;;;;;;;3.75;3.45;;;;;;;15.99;95.06;100378.09;4968569;28;20042;-93
2021/07/28 01:49:03;;;;;;;6.40;3.55;;;;;;;16.00;94.90;100374.53;4950548;28;20057;-92
2021/07/28 01:51:33;;;;;;;6.55;3.67;;;;;;;15.99;95.05;100378.09;4966338;28;20053;-93
2021/07/28 01:54:00;;;;;;;4.70;3.00;;;;;;;15.93;94.74;100377.44;4946245;28;20046;-92
2021/07/28 01:56:28;;;;;;;4.35;3.22;;;;;;;15.89;95.14;100379.31;4943903;28;20051;-93
2021/07/28 01:58:56;;;;;;;5.10;3.40;;;;;;;15.85;95.64;100383.88;4945276;28;20050;-92
2021/07/28 02:01:29;;;;;;;6.50;4.47;;;;;;;15.83;95.48;100390.13;4924545;28;20054;-92
2021/07/28 02:03:59;;;;;;;7.80;3.72;;;;;;;15.76;95.65;100386.81;4963049;28;20056;-92
2021/07/28 02:06:28;;;;;;;4.63;3.67;;;;;;;15.75;95.81;100386.84;4960010;28;20050;-92
2021/07/28 02:08:56;;;;;;;3.28;2.97;;;;;;;15.74;96.10;100391.28;4964946;28;20061;-92
2021/07/28 02:11:24;;;;;;;6.63;3.80;;;;;;;15.71;95.78;100388.75;4953919;28;20051;-92
2021/07/28 02:13:51;;;;;;;5.07;3.50;;;;;;;15.70;96.08;100384.38;4960746;28;20863;-92
2021/07/28 02:16:19;;;;;;;5.22;3.60;;;;;;;15.66;96.19;100386.25;4966084;28;20054;-93
2021/07/28 02:18:46;;;;;;;4.85;3.42;;;;;;;15.63;96.12;100393.41;4952529;28;20054;-92
2021/07/28 02:21:17;;;;;;;5.00;4.13;;;;;;;15.59;96.25;100392.66;4954358;28;20360;-92
2021/07/28 02:23:45;;;;;;;7.35;4.20;;;;;;;15.58;96.76;100395.34;4936582;28;20078;-92
2021/07/28 02:26:16;;;;;;;3.58;3.17;;;;;;;15.55;97.02;100388.38;4973157;28;20495;-92
2021/07/28 02:28:45;;;;;;;3.25;2.95;;;;;;;15.54;96.85;100394.59;4957755;28;20501;-92
2021/07/28 02:31:12;;;;;;;4.97;3.70;;;;;;;15.54;96.92;100389.31;4935274;28;20133;-92
2021/07/28 02:33:42;;;;;;;7.38;3.55;;;;;;;15.52;96.93;100385.88;4974481;28;20141;-92
2021/07/28 02:36:10;;;;;;;5.18;3.30;;;;;;;15.51;97.10;100381.50;4966221;28;20681;-93
2021/07/28 02:38:43;;;;;;;5.40;4.00;;;;;;;15.48;97.10;100389.53;4956844;28;20614;-93
2021/07/28 02:41:16;;;;;;;7.68;3.53;;;;;;;15.45;97.73;100386.97;4972041;28;20082;-93
2021/07/28 02:43:44;;;;;;;9.13;3.58;;;;;;;15.39;97.60;100380.13;4960849;28;20057;-93
2021/07/28 02:46:15;;;;;;;6.60;3.90;;;;;;;15.37;97.63;100385.47;4958614;28;20046;-92
2021/07/28 02:48:44;;;;;;;6.75;4.30;;;;;;;15.37;98.32;100384.63;4970934;28;20493;-93
2021/07/28 02:51:11;;;;;;;6.78;4.25;;;;;;;15.36;98.17;100382.88;4974524;28;20066;-93
2021/07/28 02:53:39;;;;;;;3.60;3.13;;;;;;;15.35;97.97;100384.63;4939737;28;20562;-92
2021/07/28 02:56:10;;;;;;;8.57;4.20;;;;;;;15.34;98.11;100382.06;4975791;28;20272;-93
2021/07/28 02:58:42;;;;;;;4.85;3.95;;;;;;;15.31;98.42;100396.22;4924814;28;20069;-93
2021/07/28 03:01:11;;;;;;;8.50;4.57;;;;;;;15.30;98.49;100399.75;4974874;28;20061;-92
2021/07/28 03:03:42;;;;;;;6.70;3.78;;;;;;;15.28;98.44;100393.69;4978441;28;20081;-92
2021/07/28 03:06:11;;;;;;;5.05;3.75;;;;;;;15.27;98.79;100389.31;4960894;28;20051;-92
2021/07/28 03:08:50;;;;;;;8.07;3.72;;;;;;;15.22;98.64;100388.59;4960705;28;20162;-92
2021/07/28 03:11:19;;;;;;;5.90;3.88;;;;;;;15.18;98.79;100386.97;4987587;28;20046;-93
2021/07/28 03:13:47;;;;;;;6.90;3.50;;;;;;;15.13;99.15;100397.66;4978583;28;20410;-92
2021/07/28 03:16:16;;;;;;;9.20;4.78;;;;;;;15.15;99.56;100405.56;4964428;28;20041;-92
2021/07/28 03:18:45;;;;;;;7.03;4.13;;;;;;;15.15;99.31;100398.50;4977095;28;20124;-92
2021/07/28 03:21:12;;;;;;;4.72;3.70;;;;;;;15.17;99.47;100409.84;4962837;28;20069;-91
2021/07/28 03:23:44;;;;;;;6.45;3.50;;;;;;;15.19;98.97;100410.66;4974559;28;20050;-92
2021/07/28 03:26:13;;;;;;;6.00;3.75;;;;;;;15.19;99.00;100412.44;4947909;28;20123;-92
2021/07/28 03:28:40;;;;;;;3.90;3.28;;;;;;;15.19;99.02;100413.28;4960112;28;20066;-92
2021/07/28 03:31:09;;;;;;;4.65;3.35;;;;;;;15.21;99.06;100414.13;4972140;28;20050;-92
2021/07/28 03:33:38;;;;;;;10.18;3.90;;;;;;;15.23;99.27;100414.06;4945919;28;20054;-92
2021/07/28 03:36:08;;;;;;;4.28;3.88;;;;;;;15.22;98.86;100421.09;4958037;28;20469;-93
2021/07/28 03:38:36;;;;;;;3.67;3.28;;;;;;;15.19;98.86;100408.03;4979228;28;20051;-92
2021/07/28 03:41:03;;;;;;;7.88;3.50;;;;;;;15.19;98.91;100413.28;4947768;28;20556;-92
2021/07/28 03:43:32;;;;;;;4.57;3.42;;;;;;;15.18;98.67;100416.00;4968850;28;20038;-91
2021/07/28 03:46:00;;;;;;;6.30;3.58;;;;;;;15.15;98.87;100416.09;4968081;28;20058;-91
2021/07/28 03:48:30;;;;;;;6.72;4.68;;;;;;;15.15;98.93;100416.09;4980601;28;20871;-93
2021/07/28 03:51:01;;;;;;;6.80;3.72;;;;;;;15.17;98.83;100414.25;4982952;28;20050;-92
2021/07/28 03:53:29;;;;;;;5.63;4.15;;;;;;;15.19;98.66;100415.94;4968947;28;20046;-90
2021/07/28 03:55:56;;;;;;;5.72;3.55;;;;;;;15.22;98.68;100414.97;4978408;28;20132;-92
2021/07/28 03:58:27;;;;;;;5.93;3.45;;;;;;;15.29;98.29;100416.50;4976874;28;20050;-91
2021/07/28 04:00:54;;;;;;;5.75;3.67;;;;;;;15.33;98.11;100411.97;4987921;28;20050;-92
2021/07/28 04:03:30;;;;;;;6.03;4.07;;;;;;;15.34;97.88;100404.03;4965719;28;20054;-92
2021/07/28 04:06:03;;;;;;;6.22;3.53;;;;;;;15.36;97.55;100410.09;4963955;28;20070;-93
2021/07/28 04:08:31;;;;;;;5.90;4.15;;;;;;;15.37;97.76;100411.00;4980823;28;20045;-91
2021/07/28 04:11:01;;;;;;;8.98;5.00;;;;;;;15.36;97.63;100409.25;5008460;28;20158;-92
2021/07/28 04:13:31;;;;;;;5.43;3.83;;;;;;;15.34;97.49;100400.53;4994104;28;20058;-92
2021/07/28 04:15:58;;;;;;;3.50;3.20;;;;;;;15.35;97.49;100408.38;4967814;28;20029;-92
2021/07/28 04:18:27;;;;;;;5.70;3.72;;;;;;;15.33;97.57;100404.94;4973170;28;20046;-91
2021/07/28 04:21:03;;;;;;;11.35;4.75;;;;;;;15.32;97.60;100395.31;5017574;28;20054;-91
2021/07/28 04:23:32;;;;;;;9.93;4.32;;;;;;;15.35;97.76;100394.34;4980574;28;20061;-91
2021/07/28 04:28:41;;;;;;;7.43;5.05;;;;;;;15.46;97.39;100396.63;4995048;28;20034;-90
2021/07/28 04:33:51;;;;;;;4.47;3.70;;;;;;;15.61;96.26;100385.53;4992853;28;20105;-92
2021/07/28 04:36:19;;;;;;;7.35;4.95;;;;;;;15.68;96.22;100380.91;4985554;28;20053;-92
2021/07/28 04:38:52;;;;;;;5.90;4.50;;;;;;;15.76;95.54;100375.38;4960470;28;20094;-90
2021/07/28 04:41:20;;;;;;;9.93;3.63;;;;;;;15.83;94.95;100375.13;4982896;28;20057;-92
2021/07/28 04:43:48;;;;;;;7.43;4.32;;;;;;;15.86;94.60;100376.81;5001318;28;20097;-91
2021/07/28 04:46:21;;;;;;;6.97;3.63;;;;;;;15.90;94.59;100374.94;4991838;28;20387;-92
2021/07/28 04:48:49;;;;;;;5.28;3.80;;;;;;;15.92;94.48;100371.31;4995467;28;20053;-91
2021/07/28 04:51:17;;;;;;;6.88;4.90;;;;;;;15.98;94.27;100372.88;4981975;28;20050;-93
2021/07/28 04:53:54;;;;;;;4.65;3.40;;;;;;;16.06;94.07;100373.47;5013617;28;20089;-93
2021/07/28 05:00:02;;;;;;;8.32;4.30;;;;;;;16.24;93.07;100373.69;5123299;27;20547;-94
2021/07/28 05:02:44;;;;;;;4.50;4.10;;;;;;;16.34;92.67;100372.44;5087797;28;20706;-94
2021/07/28 05:05:18;;;;;;;4.82;3.88;;;;;;;16.40;91.94;100372.22;5106121;27;20055;-93
2021/07/28 05:07:50;;;;;;;6.68;4.57;;;;;;;16.46;91.80;100374.59;5112059;28;20067;-91
2021/07/28 05:10:18;;;;;;;7.23;4.37;;;;;;;16.51;91.63;100377.09;5103205;28;20028;-92
2021/07/28 05:12:45;;;;;;;6.47;4.38;;;;;;;16.54;91.16;100377.84;5084545;28;20052;-91
2021/07/28 05:15:14;;;;;;;6.00;4.55;;;;;;;16.60;90.51;100375.88;5063659;28;20055;-90
2021/07/28 05:17:48;;;;;;;3.88;3.38;;;;;;;16.62;90.60;100382.84;5078990;28;20056;-96
2021/07/28 05:20:18;;;;;;;4.75;4.10;;;;;;;16.65;90.47;100379.22;5058212;28;20049;-95
2021/07/28 05:22:49;;;;;;;6.25;4.10;;;;;;;16.69;90.51;100380.81;5073656;28;20063;-92
2021/07/28 05:25:18;;;;;;;5.07;3.67;;;;;;;16.74;90.35;100373.56;5073641;28;20048;-94
2021/07/28 05:27:48;;;;;;;8.02;4.70;;;;;;;16.79;89.91;100376.00;5065051;28;20835;-92
2021/07/28 05:30:21;;;;;;;6.25;3.80;;;;;;;16.81;89.78;100384.75;5047694;28;20549;-91
2021/07/28 05:32:56;;;;;;;7.55;3.85;;;;;;;16.83;89.82;100380.25;5111079;22;20062;-91
2021/07/28 05:35:48;;;;;;;4.50;3.90;;;;;;;16.85;89.56;100381.91;4978107;28;20050;-94
2021/07/28 05:39:03;;;;;;;7.50;3.90;;;;;;;16.85;89.37;100373.13;4977072;28;20051;-96
2021/07/28 05:41:51;;;;;;;4.68;3.83;;;;;;;16.84;89.25;100389.91;4956315;28;20066;-93
2021/07/28 05:44:32;;;;;;;4.70;3.95;;;;;;;16.84;88.73;100398.72;4942069;28;20520;-93
2021/07/28 05:52:46;;;;;;;4.93;3.72;;;;;;;16.99;89.06;100402.56;4946884;28;20075;-92
2021/07/28 05:58:13;;;;;;;5.63;4.13;;;;;;;17.13;87.97;100399.38;4959298;28;20089;-95
2021/07/28 06:00:41;;;;;;;7.05;4.38;;;;;;;17.17;87.61;100402.75;4970928;28;20050;-94
2021/07/28 06:03:13;;;;;;;5.07;3.45;;;;;;;17.20;87.38;100406.13;4956178;28;20077;-93
2021/07/28 06:05:53;;;;;;;6.13;4.00;;;;;;;17.40;87.35;100408.88;4956892;28;20071;-92
2021/07/28 06:08:35;;;;;;;5.22;3.58;;;;;;;17.66;85.65;100410.44;4954758;28;20062;-94
2021/07/28 06:11:02;;;;;;;7.15;3.88;;;;;;;17.88;85.12;100406.88;5001216;28;20123;-96
2021/07/28 06:13:43;;;;;;;4.00;2.70;;;;;;;18.02;84.17;100407.16;4928438;28;20066;-93
2021/07/28 06:16:17;;;;;;;3.95;3.58;;;;;;;18.10;83.47;100397.09;5010323;28;20202;-93
2021/07/28 06:18:50;;;;;;;6.80;3.65;;;;;;;18.11;83.04;100404.09;4915625;28;20055;-93
2021/07/28 06:24:19;;;;;;;4.47;4.07;;;;;;;18.13;82.80;100402.25;4931561;28;20056;-93
2021/07/28 06:29:58;;;;;;;3.25;2.95;;;;;;;18.20;82.41;100402.84;4920742;28;20805;-94
2021/07/28 06:32:28;;;;;;;4.20;3.22;;;;;;;18.24;82.39;100400.91;4962582;28;20080;-94
2021/07/28 06:40:52;;;;;;;5.03;3.63;;;;;;;18.28;81.79;100402.50;5037886;28;20038;-92
2021/07/28 06:43:29;;;;;;;4.00;3.60;;;;;;;18.31;81.81;100399.72;5037455;28;20047;-94
2021/07/28 06:46:07;;;;;;;3.92;3.60;;;;;;;18.39;80.51;100404.66;5013051;28;20060;-95
2021/07/28 06:48:50;;;;;;;5.07;3.47;;;;;;;18.46;80.44;100404.31;5010332;28;20056;-91
2021/07/28 06:51:26;;;;;;;3.78;3.47;;;;;;;18.58;79.93;100410.84;5013284;28;20049;-95
2021/07/28 06:57:12;;;;;;;5.40;3.80;;;;;;;18.92;77.54;100397.81;5031981;28;20084;-93
2021/07/28 07:02:44;;;;;;;4.07;3.55;;;;;;;19.12;76.45;100400.34;5188136;23;20073;-85
2021/07/28 07:05:12;;;;;;;4.25;3.67;;;;;;;19.20;75.59;100399.97;5015046;28;20041;-85
2021/07/28 07:07:41;;;;;;;4.03;3.53;;;;;;;19.22;74.96;100394.63;5013097;28;20064;-85
2021/07/28 07:10:09;;;;;;;4.30;3.78;;;;;;;19.20;75.29;100397.31;4996057;28;20318;-85
2021/07/28 07:12:37;;;;;;;7.38;4.30;;;;;;;19.18;74.74;100401.84;5007587;28;20508;-83
2021/07/28 07:15:08;;;;;;;4.65;3.83;;;;;;;19.10;75.37;100404.88;5029782;28;20045;-86
2021/07/28 07:17:38;;;;;;;3.92;2.88;;;;;;;19.08;75.87;100400.59;5040929;28;20239;-82
2021/07/28 07:20:14;;;;;;;3.92;3.35;;;;;;;19.10;76.18;100404.88;5013326;28;20056;-81
2021/07/28 07:22:50;;;;;;;10.10;4.60;;;;;;;19.10;76.25;100396.94;5021374;28;20037;-84
2021/07/28 07:25:17;;;;;;;5.90;4.20;;;;;;;19.17;76.42;100393.03;5025136;28;20049;-85
2021/07/28 07:27:47;;;;;;;3.80;2.95;;;;;;;19.33;76.05;100392.25;5031784;28;20049;-82
2021/07/28 07:36:08;;;;;;;3.85;3.55;;;;;;;19.80;74.16;100401.41;5048530;28;20016;-83
2021/07/28 07:38:54;;;;;;;14.02;3.75;;;;;;;19.94;73.91;100406.91;5053881;28;20041;-83
2021/07/28 07:41:26;;;;;;;3.60;3.30;;;;;;;20.10;72.70;100401.66;5049044;28;20052;-84
2021/07/28 07:43:57;;;;;;;3.97;3.58;;;;;;;20.21;72.24;100401.09;5025271;28;20053;-84
2021/07/28 07:46:34;;;;;;;4.35;3.95;;;;;;;20.32;69.73;100404.03;5039341;28;20041;-86
2021/07/28 07:49:04;;;;;;;4.82;3.33;;;;;;;20.61;69.94;100404.25;5008431;28;20421;-84
2021/07/28 07:51:42;;;;;;;4.65;3.45;;;;;;;21.20;68.14;100402.78;5032728;28;20057;-83
2021/07/28 07:57:02;;;;;;;6.32;3.50;;;;;;;21.67;65.37;100403.63;5044015;28;20065;-82
2021/07/28 07:59:35;;;;;;;3.83;3.20;;;;;;;21.37;66.07;100401.81;4994974;28;20116;-84
2021/07/28 08:02:02;;;;;;;5.15;3.78;;;;;;;21.24;66.17;100404.34;5027605;28;20132;-86
2021/07/28 08:04:33;;;;;;;4.53;3.15;;;;;;;21.06;66.32;100400.94;5044129;28;20836;-85
2021/07/28 08:07:19;;;;;;;2.85;2.65;;;;;;;20.97;67.28;100407.63;5026422;28;20061;-84
2021/07/28 08:09:54;;;;;;;4.93;4.28;;;;;;;20.81;67.79;100407.63;5046204;28;20040;-83
2021/07/28 08:12:30;;;;;;;4.07;3.78;;;;;;;20.62;68.42;100410.41;5044325;28;20049;-86
2021/07/28 08:15:02;;;;;;;4.22;3.60;;;;;;;20.50;69.38;100414.59;5063218;28;20049;-84
2021/07/28 08:17:34;;;;;;;4.05;3.67;;;;;;;20.57;69.58;100412.47;5054144;28;20044;-85
2021/07/28 08:20:01;;;;;;;4.68;4.03;;;;;;;20.95;67.81;100413.03;5025513;28;20036;-86
2021/07/28 08:22:29;;;;;;;4.90;3.70;;;;;;;21.54;64.91;100404.38;5039313;28;20621;-84
2021/07/28 08:25:16;;;;;;;4.15;3.40;;;;;;;21.81;64.18;100414.31;5023037;28;20059;-85
2021/07/28 08:27:55;;;;;;;5.82;3.60;;;;;;;22.46;61.42;100405.97;5042135;28;20098;-86
2021/07/28 08:30:28;;;;;;;4.65;3.38;;;;;;;23.23;58.81;100408.19;5024562;28;20070;-88
2021/07/28 08:32:57;;;;;;;4.75;3.30;;;;;;;24.36;56.39;100405.88;4967966;28;20078;-87
2021/07/28 08:35:26;;;;;;;3.45;3.05;;;;;;;25.34;52.79;100393.50;5056235;28;20079;-85
2021/07/28 08:41:30;;;;;;;3.70;3.13;;;;;;;26.86;48.38;100390.66;5008189;28;20047;-86
2021/07/28 08:44:11;;;;;;;3.53;3.22;;;;;;;27.08;47.71;100385.22;5014920;28;20053;-86
2021/07/28 08:49:28;;;;;;;6.72;3.13;;;;;;;27.65;45.98;100385.00;5038924;28;20040;-84
2021/07/28 08:51:56;;;;;;;3.20;2.85;;;;;;;28.08;45.69;100380.44;5057128;28;20063;-87
2021/07/28 08:54:23;;;;;;;3.83;2.72;;;;;;;28.80;42.60;100369.66;5037846;28;20049;-88
2021/07/28 08:56:59;;;;;;;3.47;3.17;;;;;;;29.07;42.70;100368.13;5029164;28;20202;-85
2021/07/28 08:59:32;;;;;;;4.20;3.80;;;;;;;29.51;41.35;100368.56;5039342;28;20519;-87
2021/07/28 09:02:00;;;;;;;3.70;3.40;;;;;;;29.76;40.66;100369.78;5020756;28;20048;-88
2021/07/28 09:04:30;;;;;;;3.63;3.33;;;;;;;29.48;40.03;100371.56;5051077;28;20086;-86
2021/07/28 09:07:00;;;;;;;3.35;3.05;;;;;;;29.02;40.02;100380.19;4960526;28;20060;-88
2021/07/28 09:09:28;;;;;;;3.28;2.95;;;;;;;28.49;41.66;100375.09;5038967;28;20098;-84
2021/07/28 09:12:01;;;;;;;3.95;3.58;;;;;;;28.67;40.97;100365.38;5018573;28;20136;-84
2021/07/28 09:14:35;;;;;;;3.88;3.58;;;;;;;29.09;40.58;100368.84;5037478;28;20067;-88
2021/07/28 09:17:26;;;;;;;3.58;3.28;;;;;;;29.19;39.33;100372.38;4948527;28;20058;-86
2021/07/28 09:19:54;;;;;;;3.42;3.13;;;;;;;28.80;40.98;100369.66;5040267;28;20052;-87
2021/07/28 09:22:22;;;;;;;3.63;3.22;;;;;;;29.20;38.98;100363.31;5050898;28;20582;-86
2021/07/28 09:25:22;;;;;;;3.92;3.55;;;;;;;29.74;38.94;100374.50;5037677;28;20404;-87
2021/07/28 09:27:58;;;;;;;3.28;2.97;;;;;;;30.98;37.00;100376.94;5031637;28;20132;-85
2021/07/28 09:30:27;;;;;;;3.78;3.47;;;;;;;31.64;35.73;100385.69;5038906;28;20052;-88
2021/07/28 09:33:09;;;;;;;3.30;3.10;;;;;;;31.12;35.88;100388.25;5039568;28;20045;-86
2021/07/28 09:36:01;;;;;;;3.58;3.28;;;;;;;29.83;37.76;100387.09;5036436;28;20032;-86
2021/07/28 09:38:43;;;;;;;3.22;3.03;;;;;;;29.11;39.53;100396.50;5004211;28;20047;-84
2021/07/28 09:41:23;;;;;;;8.15;3.25;;;;;;;28.57;41.06;100399.50;5022335;28;20041;-86
2021/07/28 09:44:03;;;;;;;3.10;2.80;;;;;;;27.76;42.29;100394.00;5061505;28;20112;-87
2021/07/28 09:46:37;;;;;;;;;;;;;;;27.55;42.56;100386.75;5039648;28;20044;-86
2021/07/28 09:49:10;;;;;;;3.58;2.97;;;;;;;27.91;42.33;100387.25;5061401;28;20286;-86
2021/07/28 09:51:44;;;;;;;5.10;2.88;;;;;;;27.14;43.57;100369.56;5022819;28;20048;-85
2021/07/28 09:54:15;;;;;;;3.25;2.90;;;;;;;26.65;44.83;100379.78;5042951;28;20094;-86
2021/07/28 09:56:57;;;;;;;3.70;2.38;;;;;;;26.40;45.39;100366.53;5032201;28;20459;-84
2021/07/28 10:02:23;;;;;;;3.13;2.78;;;;;;;26.25;45.86;100355.19;5034935;28;20306;-84
2021/07/28 10:04:54;;;;;;;2.83;2.63;;;;;;;26.11;46.32;100362.66;5039964;28;20135;-84
2021/07/28 10:07:23;;;;;;;3.22;2.40;;;;;;;26.00;46.38;100361.63;5042794;28;20057;-89
2021/07/28 10:10:00;;;;;;;4.75;3.15;;;;;;;25.92;46.54;100359.56;5044370;28;20046;-86
2021/07/28 10:12:28;;;;;;;3.42;3.13;;;;;;;25.75;46.80;100358.19;5058461;28;20128;-86
2021/07/28 10:14:58;;;;;;;2.78;2.55;;;;;;;25.82;47.06;100341.63;5028097;28;20078;-88
2021/07/28 10:17:25;;;;;;;3.42;2.50;;;;;;;26.15;45.76;100348.00;5035814;28;20350;-86
2021/07/28 10:19:52;;;;;;;3.38;2.72;;;;;;;26.56;45.14;100342.00;5025434;28;20049;-87
2021/07/28 10:22:21;;;;;;;2.72;2.53;;;;;;;27.72;42.25;100336.91;5040550;28;20513;-85
2021/07/28 10:24:49;;;;;;;2.67;2.58;;;;;;;28.41;39.93;100319.25;5042814;28;20471;-88
2021/07/28 10:27:22;;;;;;;3.00;2.80;;;;;;;27.80;40.88;100325.50;5005392;28;20058;-83
2021/07/28 10:29:52;;;;;;;2.92;2.63;;;;;;;27.89;40.56;100322.84;5044703;28;20163;-84
2021/07/28 10:32:42;;;;;;;3.53;3.22;;;;;;;29.26;38.11;100314.22;5046919;28;20044;-84
2021/07/28 10:35:23;;;;;;;4.50;3.05;;;;;;;30.03;37.15;100308.81;5043481;28;20048;-89
2021/07/28 10:37:55;;;;;;;3.47;3.10;;;;;;;29.80;36.94;100311.88;5024984;28;20059;-86
2021/07/28 10:40:32;;;;;;;4.32;3.20;;;;;;;28.38;39.51;100315.00;5040195;28;20041;-86
2021/07/28 10:43:00;;;;;;;6.00;3.33;;;;;;;27.33;41.97;100307.91;5042504;28;20044;-86
2021/07/28 10:45:54;;;;;;;3.80;3.05;;;;;;;26.60;43.76;100314.91;5035897;28;20108;-85
2021/07/28 10:48:50;;;;;;;3.42;2.60;;;;;;;25.95;45.52;100320.91;5043094;28;20049;-84
2021/07/28 10:51:50;;;;;;;2.97;2.70;;;;;;;25.66;46.33;100323.22;5039540;28;20040;-86
2021/07/28 10:54:17;;;;;;;2.80;2.60;;;;;;;25.34;47.06;100321.16;5038878;28;20262;-88
2021/07/28 10:57:14;;;;;;;4.15;3.33;;;;;;;25.49;47.12;100313.78;5038083;28;20811;-84
2021/07/28 10:59:44;;;;;;;4.03;3.20;;;;;;;26.34;45.23;100313.34;5027621;28;20160;-86
2021/07/28 11:02:13;;;;;;;4.45;4.10;;;;;;;27.33;43.25;100315.13;5042277;28;20087;-86
2021/07/28 11:04:42;;;;;;;3.53;3.22;;;;;;;28.95;39.33;100308.97;5039441;28;20056;-86
2021/07/28 11:07:12;;;;;;;3.42;3.20;;;;;;;30.49;36.70;100304.34;5041878;28;20446;-88
2021/07/28 11:09:42;;;;;;;3.10;2.90;;;;;;;30.72;36.25;100297.66;5041669;28;20040;-87
2021/07/28 11:12:11;;;;;;;3.22;2.80;;;;;;;29.94;37.34;100305.16;5056779;28;20053;-87
2021/07/28 11:14:43;;;;;;;2.60;2.40;;;;;;;29.25;38.53;100308.97;5020842;28;20102;-84
2021/07/28 11:17:10;;;;;;;3.38;3.08;;;;;;;28.71;39.71;100304.03;5041230;28;20060;-85
2021/07/28 11:19:50;;;;;;;3.55;3.33;;;;;;;28.06;41.45;100305.25;5030297;28;20119;-85
2021/07/28 11:22:26;;;;;;;3.17;2.88;;;;;;;27.49;42.63;100307.47;5005548;28;20048;-87
2021/07/28 11:24:58;;;;;;;2.97;2.75;;;;;;;26.85;43.36;100305.69;5042816;28;20071;-84
2021/07/28 11:27:24;;;;;;;3.47;2.83;;;;;;;26.26;44.69;100307.78;5023001;28;20556;-84
2021/07/28 11:30:14;;;;;;;3.78;2.78;;;;;;;25.93;45.60;100301.44;5059929;28;20078;-84
2021/07/28 11:32:40;;;;;;;3.00;2.80;;;;;;;25.89;45.49;100305.31;5023560;28;20053;-87
2021/07/28 11:35:09;;;;;;;3.10;2.80;;;;;;;26.57;43.92;100297.22;5027639;28;20045;-88
2021/07/28 11:37:38;;;;;;;2.67;2.47;;;;;;;28.19;40.80;100299.63;5029645;28;20131;-88
2021/07/28 11:40:06;;;;;;;2.38;2.17;;;;;;;28.43;40.28;100293.00;5039724;28;20048;-86
2021/07/28 11:42:34;;;;;;;2.50;2.38;;;;;;;28.04;41.01;100299.16;5029060;28;20037;-88
2021/07/28 11:45:01;;;;;;;3.20;2.60;;;;;;;27.43;42.39;100294.59;5028681;28;20086;-88
2021/07/28 11:47:29;;;;;;;3.50;2.60;;;;;;;27.05;43.67;100301.34;5060016;28;20055;-86
2021/07/28 11:50:04;;;;;;;2.95;2.72;;;;;;;26.72;44.54;100311.22;5023850;28;20041;-87
2021/07/28 11:52:38;;;;;;;5.03;2.58;;;;;;;26.52;44.60;100300.28;5040382;28;20601;-86
2021/07/28 11:55:32;;;;;;;2.80;1.98;;;;;;;27.06;43.27;100298.53;5040657;28;20071;-87
2021/07/28 11:58:00;;;;;;;1.88;1.77;;;;;;;27.25;42.49;100299.66;5041567;28;20041;-86
2021/07/28 12:00:39;;;;;;;2.33;2.03;;;;;;;27.39;41.62;100291.31;5040517;28;20118;-86
2021/07/28 12:03:31;;;;;;;3.10;1.88;;;;;;;28.85;39.56;100291.97;5021223;28;21759;-89
2021/07/28 12:06:08;;;;;;;3.60;2.03;;;;;;;28.94;38.88;100287.56;5038685;28;20305;-86
2021/07/28 12:08:40;;;;;;;1.90;1.80;;;;;;;28.13;40.54;100294.78;5016358;28;20053;-83
2021/07/28 12:11:11;;;;;;;2.10;2.00;;;;;;;27.34;42.49;100301.56;5054851;28;20171;-89
2021/07/28 12:13:51;;;;;;;2.05;1.83;;;;;;;26.86;43.58;100304.72;5051175;28;20052;-85
2021/07/28 12:16:21;;;;;;;1.77;1.65;;;;;;;26.40;44.81;100294.09;5039103;28;20044;-86
2021/07/28 12:18:56;;;;;;;5.30;2.83;;;;;;;25.81;46.31;100303.22;5058162;28;20105;-88
2021/07/28 12:21:26;;;;;;;2.17;2.00;;;;;;;25.50;47.08;100304.78;5035236;28;20059;-86
2021/07/28 12:23:57;;;;;;;2.88;2.67;;;;;;;24.99;48.50;100314.84;5058043;28;20052;-85
2021/07/28 12:26:47;;;;;;;2.33;2.22;;;;;;;24.59;49.72;100307.06;5017550;28;20139;-88
2021/07/28 12:29:37;;;;;;;5.25;2.70;;;;;;;24.30;50.86;100319.88;5021377;28;20134;-87
2021/07/28 12:32:16;;;;;;;3.95;2.50;;;;;;;23.75;51.23;100360.19;5049605;28;20052;-85
2021/07/28 12:34:49;;;;;;;2.53;1.38;;;;;;;21.78;63.88;100391.41;5042456;28;20426;-85
2021/07/28 12:37:34;;;;;;;4.15;1.40;;;;;;;18.68;100.00;100395.34;5024750;28;20051;-86
2021/07/28 12:43:55;;;;;;;1.75;1.65;;;;;;;16.92;100.00;100387.00;5050321;28;20040;-85
2021/07/28 13:24:54;;;;;;;5.15;1.30;;;;;;;26.89;59.49;100334.00;5031164;28;20053;-86
2021/07/28 13:27:22;;;;;;;1.55;1.17;;;;;;;27.24;57.47;100340.94;5002169;28;20136;-88
2021/07/28 13:29:55;;;;;;;1.38;1.30;;;;;;;28.07;52.70;100330.31;4999135;28;20049;-86
2021/07/28 13:32:27;;;;;;;2.15;1.25;;;;;;;28.73;51.87;100341.59;5027450;28;20063;-86
2021/07/28 13:34:54;;;;;;;2.72;1.02;;;;;;;28.74;51.73;100346.00;4999050;28;20444;-86